Time;durP1;ratioP1;P1;durP2;ratioP2;P2;SDS_P1;SDS_P2;PMS_P1;PMS_P2;Temp;Humidity;BMP_temperature;BMP_pressure;BME280_temperature;BME280_humidity;BME280_pressure;Samples;Min_cycle;Max_cycle;Signal;HPM_P1;HPM_P2
2021/11/18 00:02:20;;;;;;;23.20;4.03;;;;;;;6.94;91.94;102759.03;5044626;28;20228;-83
2021/11/18 00:04:46;;;;;;;13.15;3.50;;;;;;;6.91;91.71;102756.41;5062739;28;20369;-83
2021/11/18 00:07:11;;;;;;;11.18;4.03;;;;;;;6.90;91.73;102752.06;5045566;28;20045;-83
2021/11/18 00:09:36;;;;;;;11.13;2.97;;;;;;;6.89;91.40;102751.22;5059038;28;20025;-83
2021/11/18 00:12:02;;;;;;;19.38;3.85;;;;;;;6.88;91.44;102762.47;5028464;28;20033;-83
2021/11/18 00:14:28;;;;;;;14.93;3.90;;;;;;;6.88;91.36;102753.81;5044886;28;20036;-83
2021/11/18 00:16:53;;;;;;;13.98;4.10;;;;;;;6.89;91.30;102760.75;5045198;28;20356;-83
2021/11/18 00:19:19;;;;;;;13.27;4.30;;;;;;;6.88;91.52;102759.00;5061145;28;20255;-83
2021/11/18 00:21:44;;;;;;;14.45;3.83;;;;;;;6.88;91.66;102764.22;5045045;28;20033;-83
2021/11/18 00:24:10;;;;;;;16.45;3.97;;;;;;;6.86;91.37;102769.41;5062142;28;20333;-83
2021/11/18 00:26:37;;;;;;;18.42;4.60;;;;;;;6.86;91.40;102763.34;5044435;28;20375;-83
2021/11/18 00:29:02;;;;;;;16.80;4.63;;;;;;;6.85;91.38;102766.81;5045059;28;20071;-83
2021/11/18 00:31:30;;;;;;;14.38;3.80;;;;;;;6.83;91.29;102772.00;5062292;28;20029;-83
2021/11/18 00:33:56;;;;;;;14.00;4.45;;;;;;;6.83;91.49;102773.75;5040558;28;20037;-83
2021/11/18 00:36:21;;;;;;;16.25;3.95;;;;;;;6.81;91.40;102775.47;5060408;28;20449;-83
2021/11/18 00:38:46;;;;;;;16.65;4.25;;;;;;;6.80;91.11;102776.31;5044122;28;20048;-83
2021/11/18 00:41:12;;;;;;;16.15;4.32;;;;;;;6.79;91.18;102771.97;5062738;28;20040;-83
2021/11/18 00:43:38;;;;;;;14.32;4.05;;;;;;;6.77;91.24;102774.56;5047473;28;20351;-83
2021/11/18 00:46:03;;;;;;;15.57;4.43;;;;;;;6.76;91.40;102774.56;5074833;28;20070;-83
2021/11/18 00:48:29;;;;;;;9.48;3.72;;;;;;;6.76;91.35;102774.56;5044198;28;20116;-83
2021/11/18 00:50:59;;;;;;;18.10;4.30;;;;;;;6.75;91.29;102780.63;5044195;28;20033;-83
2021/11/18 00:53:25;;;;;;;9.32;4.10;;;;;;;6.75;91.25;102785.81;5022960;28;20265;-83
2021/11/18 00:55:51;;;;;;;12.23;4.07;;;;;;;6.72;91.07;102779.75;5019760;28;20033;-83
2021/11/18 00:58:16;;;;;;;12.32;3.67;;;;;;;6.72;91.19;102776.28;5033045;28;20060;-83
2021/11/18 01:00:43;;;;;;;12.70;3.50;;;;;;;6.71;91.17;102770.19;5042706;28;20208;-83
2021/11/18 01:03:09;;;;;;;12.95;3.88;;;;;;;6.69;91.32;102771.94;5037365;28;20100;-83
2021/11/18 01:05:36;;;;;;;9.13;4.20;;;;;;;6.69;91.10;102765.81;5027303;28;20060;-83
2021/11/18 01:08:02;;;;;;;11.98;4.60;;;;;;;6.70;91.30;102773.66;5044293;28;20090;-83
2021/11/18 01:10:36;;;;;;;12.35;4.55;;;;;;;6.72;91.57;102776.28;5061859;28;20036;-83
2021/11/18 01:13:01;;;;;;;12.43;4.30;;;;;;;6.73;91.69;102776.28;5044120;28;20028;-83
2021/11/18 01:15:28;;;;;;;12.20;3.88;;;;;;;6.70;91.38;102784.06;5043742;28;20263;-83
2021/11/18 01:17:54;;;;;;;8.32;3.70;;;;;;;6.70;91.26;102783.22;5026863;28;20523;-83
2021/11/18 01:20:20;;;;;;;10.05;3.55;;;;;;;6.67;91.20;102794.44;5061628;28;20037;-82
2021/11/18 01:22:45;;;;;;;9.52;3.05;;;;;;;6.66;91.17;102790.13;5044426;28;20041;-83
2021/11/18 01:25:11;;;;;;;9.27;3.30;;;;;;;6.67;91.22;102784.03;5057615;28;20037;-83
2021/11/18 01:27:37;;;;;;;10.95;3.60;;;;;;;6.67;91.19;102786.66;5027268;28;20048;-83
2021/11/18 01:30:07;;;;;;;12.63;3.42;;;;;;;6.66;91.20;102774.50;5061558;28;20043;-83
2021/11/18 01:32:32;;;;;;;15.07;3.15;;;;;;;6.66;91.07;102771.03;5027559;28;20272;-83
2021/11/18 01:34:58;;;;;;;14.70;3.70;;;;;;;6.67;91.46;102764.94;5043436;28;20041;-83
2021/11/18 01:37:23;;;;;;;9.63;3.38;;;;;;;6.67;91.14;102768.41;5060949;28;20048;-83
2021/11/18 01:39:49;;;;;;;8.43;3.30;;;;;;;6.67;91.52;102786.66;5061516;28;20059;-83
2021/11/18 01:42:14;;;;;;;11.52;4.00;;;;;;;6.66;91.23;102790.13;5043297;28;20040;-83
2021/11/18 01:44:41;;;;;;;11.20;3.38;;;;;;;6.67;91.25;102789.25;5049149;28;20044;-83
2021/11/18 01:47:08;;;;;;;11.10;3.67;;;;;;;6.64;91.16;102786.66;5043483;28;20044;-83
2021/11/18 01:49:34;;;;;;;10.60;3.90;;;;;;;6.64;91.26;102776.22;5050973;28;20033;-83
2021/11/18 01:52:00;;;;;;;12.60;3.55;;;;;;;6.64;90.96;102785.75;5025885;28;20032;-83
2021/11/18 01:54:27;;;;;;;11.70;3.78;;;;;;;6.60;90.80;102790.06;5041233;28;20096;-83
2021/11/18 01:56:53;;;;;;;14.60;3.75;;;;;;;6.59;90.78;102784.88;5044678;28;20352;-83
2021/11/18 01:59:26;;;;;;;10.93;3.60;;;;;;;6.60;90.95;102791.81;5026362;28;20052;-83
2021/11/18 02:04:49;;;;;;;11.88;3.03;;;;;;;6.58;91.16;102804.81;5047563;28;20349;-83
2021/11/18 02:07:14;;;;;;;12.57;3.05;;;;;;;6.59;91.17;102808.31;5044231;28;20109;-83
2021/11/18 02:09:41;;;;;;;13.90;4.93;;;;;;;6.60;91.26;102817.84;5060433;28;20041;-83
2021/11/18 02:12:10;;;;;;;16.17;4.32;;;;;;;6.61;91.49;102825.66;5042754;28;20036;-83
2021/11/18 02:14:36;;;;;;;10.82;3.47;;;;;;;6.63;91.37;102821.34;5026742;28;20256;-83
2021/11/18 02:17:02;;;;;;;8.95;3.70;;;;;;;6.63;91.50;102820.47;5061094;28;20060;-83
2021/11/18 02:19:28;;;;;;;10.18;3.78;;;;;;;6.64;91.60;102810.06;5043230;28;20040;-83
2021/11/18 02:21:53;;;;;;;13.65;3.55;;;;;;;6.64;91.45;102811.78;5026526;28;20063;-83
2021/11/18 02:24:26;;;;;;;12.13;3.45;;;;;;;6.65;91.69;102819.63;5026050;28;20040;-83
2021/11/18 02:26:52;;;;;;;7.68;3.45;;;;;;;6.65;91.72;102816.16;5027219;28;20033;-83
2021/11/18 02:29:18;;;;;;;11.95;3.63;;;;;;;6.67;91.69;102809.22;5059898;28;20343;-83
2021/11/18 02:32:00;;;;;;;8.95;4.00;;;;;;;6.68;91.88;102806.63;5043552;28;20036;-83
2021/11/18 02:34:43;;;;;;;12.18;3.83;;;;;;;6.71;92.16;102819.69;5027266;28;20083;-83
2021/11/18 02:37:08;;;;;;;11.00;3.67;;;;;;;6.75;92.70;102814.47;5043315;28;20051;-83
2021/11/18 02:39:34;;;;;;;13.98;4.03;;;;;;;6.73;92.30;102807.53;5042718;28;20040;-83
2021/11/18 02:42:00;;;;;;;13.55;4.22;;;;;;;6.75;92.31;102811.88;5060577;28;20036;-83
2021/11/18 02:44:28;;;;;;;19.38;4.88;;;;;;;6.75;92.21;102817.97;5025641;28;20063;-83
2021/11/18 02:46:53;;;;;;;18.15;4.45;;;;;;;6.75;92.31;102810.16;5043201;28;20037;-83
2021/11/18 02:49:19;;;;;;;16.58;3.78;;;;;;;6.76;92.27;102821.44;5025687;28;20172;-83
2021/11/18 02:51:44;;;;;;;16.55;3.95;;;;;;;6.74;92.26;102818.81;5060749;28;20220;-83
2021/11/18 02:54:10;;;;;;;13.02;3.72;;;;;;;6.77;92.23;102813.63;5042392;28;20033;-83
2021/11/18 02:56:35;;;;;;;14.35;3.85;;;;;;;6.78;92.30;102806.69;5042374;28;20033;-83
2021/11/18 02:59:01;;;;;;;19.20;4.32;;;;;;;6.79;92.12;102806.69;5041726;28;20048;-83
2021/11/18 03:01:32;;;;;;;17.08;4.50;;;;;;;6.80;92.28;102799.75;5059580;28;20053;-83
2021/11/18 03:03:57;;;;;;;13.25;3.70;;;;;;;6.82;92.32;102803.22;5026802;28;20096;-83
2021/11/18 03:06:23;;;;;;;23.08;4.38;;;;;;;6.82;92.53;102798.03;5009291;28;20402;-83
2021/11/18 03:08:48;;;;;;;18.23;4.32;;;;;;;6.83;92.53;102800.66;5046897;28;20037;-83
2021/11/18 03:11:15;;;;;;;16.17;3.65;;;;;;;6.84;92.83;102802.41;5042371;28;20066;-83
2021/11/18 03:13:40;;;;;;;17.08;4.28;;;;;;;6.86;92.87;102810.22;5042469;28;20055;-83
2021/11/18 03:16:07;;;;;;;20.80;4.55;;;;;;;6.89;92.78;102815.44;5042439;28;20041;-82
2021/11/18 03:18:33;;;;;;;16.85;4.57;;;;;;;6.90;92.98;102809.38;5025691;28;20227;-83
2021/11/18 03:20:59;;;;;;;21.17;4.85;;;;;;;6.92;92.93;102805.03;5060304;28;20044;-83
2021/11/18 03:23:25;;;;;;;21.17;4.35;;;;;;;6.94;93.00;102798.09;5043350;28;20037;-83
2021/11/18 03:25:52;;;;;;;19.50;4.00;;;;;;;6.94;92.97;102798.09;5030192;28;20043;-83
2021/11/18 03:28:18;;;;;;;20.60;4.35;;;;;;;6.97;93.20;102797.25;5029992;28;20622;-83
2021/11/18 03:30:45;;;;;;;18.42;4.22;;;;;;;6.97;93.03;102798.13;5029940;28;20101;-83
2021/11/18 03:33:16;;;;;;;17.88;4.30;;;;;;;7.00;93.26;102800.72;5029932;28;20239;-83
2021/11/18 03:35:42;;;;;;;18.55;4.70;;;;;;;7.02;93.32;102803.34;5030590;28;20029;-83
2021/11/18 03:38:07;;;;;;;34.67;5.90;;;;;;;7.02;93.31;102806.84;5029656;28;20100;-83
2021/11/18 03:40:33;;;;;;;11.48;3.95;;;;;;;7.03;93.35;102805.97;5064037;28;20043;-83
2021/11/18 03:42:59;;;;;;;22.60;3.70;;;;;;;7.03;93.19;102802.50;5047126;28;20053;-83
2021/11/18 03:45:25;;;;;;;15.32;4.10;;;;;;;7.04;93.17;102809.44;5046067;28;20045;-83
2021/11/18 03:47:51;;;;;;;18.20;4.10;;;;;;;7.04;93.27;102799.00;5046512;28;20040;-83
2021/11/18 03:50:16;;;;;;;20.23;3.75;;;;;;;7.04;92.99;102801.63;5045705;28;20033;-83
2021/11/18 03:52:42;;;;;;;21.25;3.92;;;;;;;7.04;93.00;102810.34;5063375;28;20037;-83
2021/11/18 03:55:08;;;;;;;16.13;3.50;;;;;;;7.06;93.13;102802.53;5078692;28;20045;-83
2021/11/18 03:57:35;;;;;;;12.35;4.05;;;;;;;7.05;93.08;102798.16;5045113;28;20060;-83
2021/11/18 04:00:00;;;;;;;13.90;3.13;;;;;;;7.06;93.42;102810.34;5044956;28;20045;-83
2021/11/18 04:02:26;;;;;;;30.88;4.65;;;;;;;7.05;93.17;102803.38;5045100;28;20040;-83
2021/11/18 04:04:52;;;;;;;21.45;4.65;;;;;;;7.05;93.12;102801.63;5045600;28;20044;-83
2021/11/18 04:07:18;;;;;;;24.02;3.47;;;;;;;7.06;93.02;102803.38;5042773;28;20328;-83
2021/11/18 04:09:44;;;;;;;23.83;4.53;;;;;;;7.06;93.23;102792.97;5028579;28;20037;-83
2021/11/18 04:12:10;;;;;;;15.05;4.07;;;;;;;7.09;93.36;102807.72;5044913;28;20052;-83
2021/11/18 04:14:36;;;;;;;13.43;3.72;;;;;;;7.08;93.38;102814.69;5028732;28;20037;-83
2021/11/18 04:17:02;;;;;;;17.48;4.03;;;;;;;7.09;93.24;102803.41;5028572;28;20040;-83
2021/11/18 04:19:27;;;;;;;16.55;4.15;;;;;;;7.10;93.13;102805.16;5044998;28;20236;-83
2021/11/18 04:21:53;;;;;;;19.27;4.90;;;;;;;7.12;93.31;102815.56;5062993;28;20024;-83
2021/11/18 04:24:21;;;;;;;12.82;3.60;;;;;;;7.11;93.12;102806.91;5044724;28;20025;-83
2021/11/18 04:26:47;;;;;;;19.05;4.03;;;;;;;7.13;93.23;102811.22;5031389;28;20040;-83
2021/11/18 04:29:12;;;;;;;22.77;4.35;;;;;;;7.13;93.37;102812.13;5028447;28;20047;-83
2021/11/18 04:31:38;;;;;;;16.42;3.92;;;;;;;7.12;93.19;102805.16;5011927;28;20031;-83
2021/11/18 04:34:06;;;;;;;20.40;4.28;;;;;;;7.15;93.33;102809.50;5028194;28;20047;-83
2021/11/18 04:36:32;;;;;;;11.40;3.10;;;;;;;7.15;93.25;102809.50;5028350;28;20314;-83
2021/11/18 04:38:57;;;;;;;16.10;3.70;;;;;;;7.13;93.29;102801.69;5028080;28;20045;-83
2021/11/18 04:41:23;;;;;;;17.10;4.00;;;;;;;7.13;93.21;102790.38;5044018;28;20064;-83
2021/11/18 04:43:49;;;;;;;14.30;3.40;;;;;;;7.13;93.01;102787.78;5028448;28;20036;-83
2021/11/18 04:46:14;;;;;;;13.90;3.83;;;;;;;7.09;92.90;102777.38;5028106;28;20066;-83
2021/11/18 04:48:40;;;;;;;13.15;2.92;;;;;;;7.09;93.17;102779.97;5044113;28;20040;-83
2021/11/18 04:51:06;;;;;;;21.10;4.53;;;;;;;7.09;93.08;102777.38;5044118;28;20064;-83
2021/11/18 04:53:31;;;;;;;16.13;3.78;;;;;;;7.10;93.15;102786.91;5011704;28;20017;-83
2021/11/18 04:55:57;;;;;;;17.55;4.05;;;;;;;7.10;93.13;102784.28;5071943;28;20041;-83
2021/11/18 04:58:22;;;;;;;14.07;4.00;;;;;;;7.10;93.22;102779.09;5043814;28;20049;-83
2021/11/18 05:00:50;;;;;;;20.55;4.10;;;;;;;7.09;93.19;102771.25;5059168;28;20028;-83
2021/11/18 05:03:16;;;;;;;18.67;4.25;;;;;;;7.07;93.23;102770.38;5027497;28;20096;-83
2021/11/18 05:05:42;;;;;;;19.33;4.57;;;;;;;7.08;93.17;102778.22;5027431;28;20028;-83
2021/11/18 05:08:07;;;;;;;22.35;5.07;;;;;;;7.07;92.93;102771.25;5043746;28;20047;-83
2021/11/18 05:10:33;;;;;;;17.00;4.13;;;;;;;7.07;93.17;102788.63;5061993;28;20041;-83
2021/11/18 05:12:59;;;;;;;18.20;4.57;;;;;;;7.06;93.04;102789.50;5067557;28;20420;-83
2021/11/18 05:15:26;;;;;;;23.15;5.82;;;;;;;7.06;93.20;102786.91;5004368;28;20033;-83
2021/11/18 05:17:51;;;;;;;12.32;3.92;;;;;;;7.05;93.09;102788.59;5024568;28;20044;-83
2021/11/18 05:20:18;;;;;;;19.58;4.10;;;;;;;7.05;93.13;102791.22;5043647;28;20040;-83
2021/11/18 05:22:43;;;;;;;20.70;4.13;;;;;;;7.04;93.16;102792.09;5038579;28;20029;-83
2021/11/18 05:25:09;;;;;;;13.05;3.67;;;;;;;7.04;93.07;102792.09;5027469;28;20043;-83
2021/11/18 05:27:34;;;;;;;17.10;4.88;;;;;;;7.05;93.03;102790.34;5061341;28;20043;-83
2021/11/18 05:30:00;;;;;;;16.33;5.15;;;;;;;7.05;93.12;102786.00;5010886;28;20100;-83
2021/11/18 05:32:25;;;;;;;19.02;5.25;;;;;;;7.06;93.08;102797.31;5043329;28;20029;-83
2021/11/18 05:34:50;;;;;;;15.52;4.30;;;;;;;7.07;93.10;102797.28;5042690;28;20041;-84
2021/11/18 05:37:16;;;;;;;19.35;4.53;;;;;;;7.09;93.50;102785.19;5042157;28;20040;-83
2021/11/18 05:39:42;;;;;;;16.95;4.20;;;;;;;7.09;93.43;102787.78;5062060;28;20240;-83
2021/11/18 05:42:07;;;;;;;19.85;4.97;;;;;;;7.08;93.47;102783.41;5027509;28;20021;-83
2021/11/18 05:44:32;;;;;;;21.58;4.95;;;;;;;7.07;93.01;102784.28;5043291;28;20040;-83
2021/11/18 05:46:58;;;;;;;19.33;4.50;;;;;;;7.07;93.40;102789.47;5043488;28;20037;-83
2021/11/18 05:49:23;;;;;;;21.15;4.82;;;;;;;7.07;93.20;102801.66;5060730;28;20047;-83
2021/11/18 05:51:49;;;;;;;17.67;5.35;;;;;;;7.06;93.29;102789.50;5058672;28;20024;-83
2021/11/18 05:54:15;;;;;;;17.48;5.00;;;;;;;7.06;93.42;102790.38;5060001;28;20025;-83
2021/11/18 05:56:42;;;;;;;12.73;4.45;;;;;;;7.07;93.46;102788.63;5043404;28;20040;-83
2021/11/18 05:59:09;;;;;;;22.48;5.10;;;;;;;7.06;93.48;102792.97;5043651;28;20053;-83
2021/11/18 06:01:34;;;;;;;21.45;4.45;;;;;;;7.06;93.65;102785.16;5043427;28;20332;-83
2021/11/18 06:04:00;;;;;;;16.58;3.78;;;;;;;7.07;93.55;102791.22;5026810;28;20037;-83
2021/11/18 06:06:26;;;;;;;17.40;4.65;;;;;;;7.05;93.65;102796.41;5026228;28;20392;-83
2021/11/18 06:08:52;;;;;;;18.55;4.82;;;;;;;7.05;93.55;102800.78;5027369;28;20206;-83
2021/11/18 06:11:17;;;;;;;23.48;4.90;;;;;;;7.06;93.84;102802.53;5027118;28;20063;-84
2021/11/18 06:13:43;;;;;;;14.20;4.45;;;;;;;7.05;93.78;102804.25;5026971;28;20230;-83
2021/11/18 06:16:09;;;;;;;19.88;5.15;;;;;;;7.06;93.80;102797.31;5061071;28;20048;-83
2021/11/18 06:18:34;;;;;;;17.52;5.22;;;;;;;7.06;93.65;102803.38;5026792;28;20033;-83
2021/11/18 06:21:00;;;;;;;19.35;4.55;;;;;;;7.07;93.90;102801.66;5041647;28;20396;-83
2021/11/18 06:23:25;;;;;;;20.98;5.20;;;;;;;7.08;93.93;102803.41;5006409;28;20033;-82
2021/11/18 06:25:50;;;;;;;21.42;5.28;;;;;;;7.07;93.99;102799.03;5041607;28;20053;-83
2021/11/18 06:28:16;;;;;;;19.65;4.82;;;;;;;7.07;94.03;102801.66;5059400;28;20032;-83
2021/11/18 06:30:46;;;;;;;20.63;4.90;;;;;;;7.07;94.05;102799.91;5041329;28;20073;-83
2021/11/18 06:33:12;;;;;;;25.50;5.55;;;;;;;7.07;94.07;102793.84;5055188;28;20033;-83
2021/11/18 06:35:37;;;;;;;25.08;4.60;;;;;;;7.08;93.94;102795.59;5058710;28;20037;-83
2021/11/18 06:38:03;;;;;;;26.92;4.68;;;;;;;7.07;94.08;102792.09;5025803;28;20090;-83
2021/11/18 06:40:29;;;;;;;15.57;4.32;;;;;;;7.08;94.02;102795.59;5042171;28;20029;-83
2021/11/18 06:42:54;;;;;;;19.20;4.22;;;;;;;7.07;93.98;102797.28;5025880;28;20279;-83
2021/11/18 06:45:22;;;;;;;21.98;5.13;;;;;;;7.06;94.07;102806.00;5041703;28;20101;-83
2021/11/18 06:47:47;;;;;;;23.10;5.70;;;;;;;7.07;94.16;102805.13;5046527;28;20351;-83
2021/11/18 06:50:13;;;;;;;16.70;4.10;;;;;;;7.09;94.22;102802.53;5060830;28;20128;-83
2021/11/18 06:52:39;;;;;;;22.30;4.97;;;;;;;7.09;93.91;102803.41;5060111;28;20069;-83
2021/11/18 06:55:06;;;;;;;15.55;4.65;;;;;;;7.09;94.02;102800.81;5075951;28;20340;-83
2021/11/18 06:57:31;;;;;;;19.38;4.70;;;;;;;7.11;93.73;102813.81;5009158;28;20031;-83
2021/11/18 06:59:57;;;;;;;23.33;5.47;;;;;;;7.10;93.91;102817.31;5064043;28;20378;-83
2021/11/18 07:02:24;;;;;;;28.48;5.43;;;;;;;7.10;93.87;102817.31;5045147;28;20072;-83
2021/11/18 07:04:49;;;;;;;26.15;5.65;;;;;;;7.09;93.81;102821.66;5045999;28;20423;-83
2021/11/18 07:07:15;;;;;;;32.75;5.57;;;;;;;7.09;93.88;102821.66;5046360;28;20108;-83
2021/11/18 07:09:40;;;;;;;22.20;6.10;;;;;;;7.10;94.06;102830.34;5008189;28;20052;-83
2021/11/18 07:12:06;;;;;;;24.45;5.63;;;;;;;7.10;94.11;102848.56;5064099;28;20035;-83
2021/11/18 07:14:34;;;;;;;29.02;4.93;;;;;;;7.09;94.37;102850.31;5045730;28;20040;-83
2021/11/18 07:17:00;;;;;;;24.20;6.15;;;;;;;7.10;94.23;102867.69;5041501;28;20037;-83
2021/11/18 07:19:26;;;;;;;19.40;5.05;;;;;;;7.10;94.11;102861.59;5043167;28;20061;-83
2021/11/18 07:21:51;;;;;;;26.10;5.38;;;;;;;7.11;94.32;102856.41;5037159;28;20041;-83
2021/11/18 07:24:17;;;;;;;21.13;5.38;;;;;;;7.14;94.37;102855.53;5061289;28;20044;-83
2021/11/18 07:26:43;;;;;;;31.35;6.78;;;;;;;7.14;94.43;102855.53;5042086;28;20072;-83
2021/11/18 07:29:08;;;;;;;17.25;5.28;;;;;;;7.14;94.40;102855.53;5039884;28;20037;-83
2021/11/18 07:31:34;;;;;;;26.70;6.75;;;;;;;7.15;94.33;102866.81;5037752;28;20055;-83
2021/11/18 07:34:00;;;;;;;30.23;6.38;;;;;;;7.16;94.40;102868.59;5022772;28;20043;-83
2021/11/18 07:36:25;;;;;;;18.23;5.93;;;;;;;7.17;94.41;102865.09;5059732;28;20105;-83
2021/11/18 07:38:51;;;;;;;24.10;5.40;;;;;;;7.18;94.43;102872.06;5023727;28;20080;-83
2021/11/18 07:41:16;;;;;;;27.77;6.47;;;;;;;7.17;94.62;102868.59;5042495;28;20032;-83
2021/11/18 07:43:43;;;;;;;28.02;6.28;;;;;;;7.17;94.70;102868.59;5042479;28;20037;-83
2021/11/18 07:46:09;;;;;;;26.98;6.22;;;;;;;7.19;94.65;102868.59;5021878;28;20047;-83
2021/11/18 07:48:34;;;;;;;26.85;7.00;;;;;;;7.19;94.86;102866.00;5030241;28;20041;-83
2021/11/18 07:51:00;;;;;;;32.25;6.80;;;;;;;7.19;95.00;102869.47;5043697;28;20294;-83
2021/11/18 07:53:28;;;;;;;24.40;6.50;;;;;;;7.20;94.99;102865.97;5043095;28;20070;-83
2021/11/18 07:55:53;;;;;;;20.73;5.55;;;;;;;7.20;94.94;102855.56;5061410;28;20041;-83
2021/11/18 07:58:19;;;;;;;22.60;5.75;;;;;;;7.22;94.95;102847.75;5042200;28;20057;-83
2021/11/18 08:00:45;;;;;;;32.25;6.90;;;;;;;7.21;94.90;102844.28;5039738;28;20373;-83
2021/11/18 08:03:11;;;;;;;25.38;5.97;;;;;;;7.24;94.81;102853.84;5025277;28;20067;-83
2021/11/18 08:05:37;;;;;;;29.23;5.88;;;;;;;7.25;94.83;102858.22;5040660;28;20056;-83
2021/11/18 08:08:03;;;;;;;28.35;5.90;;;;;;;7.26;94.92;102868.66;5024784;28;20041;-83
2021/11/18 08:10:28;;;;;;;28.00;5.90;;;;;;;7.27;95.14;102856.47;5041461;28;20047;-83
2021/11/18 08:12:54;;;;;;;23.58;4.93;;;;;;;7.27;95.02;102857.34;5030314;28;20052;-83
2021/11/18 08:15:19;;;;;;;23.17;5.78;;;;;;;7.28;95.05;102853.03;5020218;28;20083;-83
2021/11/18 08:17:45;;;;;;;24.98;6.15;;;;;;;7.29;94.87;102846.94;5023664;28;20039;-83
2021/11/18 08:20:11;;;;;;;24.85;6.18;;;;;;;7.29;94.95;102852.13;5041605;28;20039;-83
2021/11/18 08:22:36;;;;;;;32.67;5.53;;;;;;;7.30;94.97;102856.50;5025351;28;20086;-83
2021/11/18 08:25:03;;;;;;;23.70;5.38;;;;;;;7.30;95.15;102859.97;5022700;28;20032;-83
2021/11/18 08:27:28;;;;;;;19.85;5.20;;;;;;;7.33;94.94;102860.84;5022452;28;20113;-83
2021/11/18 08:29:54;;;;;;;25.33;4.97;;;;;;;7.35;95.09;102874.75;5058353;28;20043;-83
2021/11/18 08:32:19;;;;;;;25.90;5.28;;;;;;;7.35;94.95;102867.84;5041489;28;20352;-83
2021/11/18 08:34:45;;;;;;;32.55;5.45;;;;;;;7.37;95.10;102865.19;4999424;28;20041;-83
2021/11/18 08:37:10;;;;;;;30.70;6.05;;;;;;;7.36;94.91;102861.75;5031015;28;20055;-83
2021/11/18 08:39:36;;;;;;;21.52;6.13;;;;;;;7.39;94.98;102869.59;5040122;28;20028;-83
2021/11/18 08:42:04;;;;;;;19.98;5.40;;;;;;;7.42;95.09;102863.50;5023919;28;20040;-83
2021/11/18 08:44:30;;;;;;;25.17;5.13;;;;;;;7.45;95.19;102863.53;5038744;28;20220;-83
2021/11/18 08:46:56;;;;;;;26.30;6.03;;;;;;;7.48;95.12;102871.38;5018344;28;20112;-83
2021/11/18 08:49:22;;;;;;;25.15;5.22;;;;;;;7.50;95.25;102860.06;5035902;28;20070;-83
2021/11/18 08:51:48;;;;;;;18.13;4.20;;;;;;;7.54;95.19;102854.88;5039249;28;20041;-83
2021/11/18 08:54:16;;;;;;;25.60;5.20;;;;;;;7.58;95.28;102847.06;5024208;28;20082;-83
2021/11/18 08:56:42;;;;;;;24.45;5.18;;;;;;;7.63;95.36;102850.56;5038599;28;20025;-83
2021/11/18 08:59:07;;;;;;;24.63;4.97;;;;;;;7.67;95.52;102854.06;4977761;28;1172818;-83
2021/11/18 09:01:51;;;;;;;14.70;4.22;;;;;;;7.71;95.34;102863.63;5037829;28;20088;-83
2021/11/18 09:04:17;;;;;;;15.63;4.57;;;;;;;7.74;95.50;102863.63;4999897;28;20341;-83
2021/11/18 09:06:43;;;;;;;19.45;5.50;;;;;;;7.78;95.37;102859.31;5037428;28;20056;-83
2021/11/18 09:09:09;;;;;;;16.83;4.70;;;;;;;7.81;95.26;102854.97;5036146;28;20308;-83
2021/11/18 09:11:35;;;;;;;29.67;5.75;;;;;;;7.84;95.25;102865.44;5016116;28;20044;-83
2021/11/18 09:14:01;;;;;;;18.67;5.05;;;;;;;7.87;95.20;102864.56;5033755;28;20049;-83
2021/11/18 09:16:27;;;;;;;26.25;5.72;;;;;;;7.88;95.20;102858.47;5018610;28;20364;-83
2021/11/18 09:18:52;;;;;;;25.27;4.45;;;;;;;7.92;95.05;102860.22;5004241;28;20057;-83
2021/11/18 09:21:19;;;;;;;18.50;4.00;;;;;;;7.94;94.98;102860.22;5016307;28;20038;-84
2021/11/18 09:23:49;;;;;;;26.70;5.47;;;;;;;7.97;94.98;102873.28;5007932;28;20084;-83
2021/11/18 09:26:15;;;;;;;25.10;4.55;;;;;;;7.98;94.96;102865.44;5035770;28;20436;-83
2021/11/18 09:28:40;;;;;;;24.63;5.47;;;;;;;8.03;94.87;102873.31;5001750;28;20100;-84
2021/11/18 09:33:56;;;;;;;21.17;4.70;;;;;;;8.09;94.50;102873.31;5019729;28;20366;-83
2021/11/18 09:36:22;;;;;;;24.70;4.97;;;;;;;8.13;94.41;102879.41;5018990;28;20037;-83
2021/11/18 09:38:49;;;;;;;13.80;3.50;;;;;;;8.15;94.56;102882.88;5021493;28;20108;-83
2021/11/18 09:41:46;;;;;;;23.77;4.55;;;;;;;8.19;94.35;102885.50;5031519;28;20049;-83
2021/11/18 09:44:31;;;;;;;20.60;4.93;;;;;;;8.20;93.98;102884.63;5033082;28;20099;-83
2021/11/18 09:47:58;;;;;;;21.77;4.40;;;;;;;8.24;93.95;102885.50;5036017;28;20025;-83
2021/11/18 09:50:30;;;;;;;21.77;4.78;;;;;;;8.24;93.91;102881.19;4937944;28;20047;-83
2021/11/18 09:52:58;;;;;;;19.00;4.72;;;;;;;8.28;93.79;102897.72;5014031;28;20211;-83
2021/11/18 09:55:36;;;;;;;19.63;4.97;;;;;;;8.30;93.90;102897.72;5028082;28;20045;-83
2021/11/18 09:58:39;;;;;;;24.00;5.82;;;;;;;8.35;93.71;102903.78;5034770;28;20049;-83
2021/11/18 10:01:17;;;;;;;14.98;4.43;;;;;;;8.39;93.78;102905.56;5034307;28;20106;-83
2021/11/18 10:03:58;;;;;;;16.65;4.00;;;;;;;8.39;93.47;102905.56;5038884;28;20219;-83
2021/11/18 10:06:35;;;;;;;15.77;4.72;;;;;;;8.43;93.45;102910.81;5033709;28;20033;-83
2021/11/18 10:09:11;;;;;;;18.55;4.53;;;;;;;8.48;93.42;102912.56;5037897;28;20041;-83
2021/11/18 10:12:04;;;;;;;29.13;6.25;;;;;;;8.49;93.52;102901.25;5033327;28;20053;-83
2021/11/18 10:14:55;;;;;;;24.38;5.28;;;;;;;8.53;93.35;102900.38;5035628;28;20383;-83
2021/11/18 10:17:30;;;;;;;19.20;5.13;;;;;;;8.56;93.12;102906.47;5035284;28;20344;-83
2021/11/18 10:20:05;;;;;;;16.50;5.38;;;;;;;8.59;93.25;102910.84;5004223;28;20108;-83
2021/11/18 10:22:34;;;;;;;22.83;5.90;;;;;;;8.62;93.04;102895.16;5035892;28;20367;-83
2021/11/18 10:24:59;;;;;;;26.03;5.43;;;;;;;8.64;92.99;102896.91;5021334;28;20045;-83
2021/11/18 10:27:33;;;;;;;14.38;4.55;;;;;;;8.67;92.73;102903.88;5037817;28;20303;-83
2021/11/18 10:30:28;;;;;;;17.35;5.25;;;;;;;8.68;92.97;102896.91;5014147;28;20275;-83
2021/11/18 10:32:59;;;;;;;21.85;6.13;;;;;;;8.71;92.94;102897.75;5036592;28;20048;-83
2021/11/18 10:36:04;;;;;;;15.80;4.68;;;;;;;8.75;92.95;102896.03;5038468;28;20045;-83
2021/11/18 10:38:33;;;;;;;17.73;4.72;;;;;;;8.78;93.08;102896.91;5030020;28;20045;-83
2021/11/18 10:41:20;;;;;;;22.30;5.22;;;;;;;8.81;93.03;102893.44;5038116;28;20283;-83
2021/11/18 10:44:17;;;;;;;16.17;4.95;;;;;;;8.87;92.96;102895.16;5034528;28;20349;-83
2021/11/18 10:47:02;;;;;;;24.50;6.10;;;;;;;8.91;92.86;102889.91;5022363;28;20114;-83
2021/11/18 10:49:32;;;;;;;29.00;5.68;;;;;;;8.96;92.55;102884.69;5025617;28;20037;-83
2021/11/18 10:52:00;;;;;;;23.17;5.43;;;;;;;8.98;92.42;102875.13;5002290;28;20022;-83
2021/11/18 10:55:08;;;;;;;23.25;5.20;;;;;;;9.01;92.30;102875.97;5018807;28;20259;-83
2021/11/18 10:57:34;;;;;;;19.20;4.57;;;;;;;9.05;92.53;102875.97;4991290;28;20056;-83
2021/11/18 11:00:29;;;;;;;16.73;5.03;;;;;;;9.10;92.40;102871.63;5040673;28;20036;-83
2021/11/18 11:02:54;;;;;;;22.30;4.70;;;;;;;9.13;92.15;102866.38;5040510;28;20055;-83
2021/11/18 11:05:38;;;;;;;17.48;4.50;;;;;;;9.16;92.01;102863.75;5034154;28;20061;-83
2021/11/18 11:08:25;;;;;;;26.73;5.75;;;;;;;9.20;91.72;102852.41;5038401;28;20049;-83
2021/11/18 11:10:58;;;;;;;24.70;4.90;;;;;;;9.21;91.72;102847.19;5021129;28;20297;-83
2021/11/18 11:13:34;;;;;;;18.52;4.45;;;;;;;9.25;91.54;102841.94;5022177;28;20021;-83
2021/11/18 11:16:25;;;;;;;15.35;4.55;;;;;;;9.27;91.43;102838.44;5026792;28;20097;-83
2021/11/18 11:18:56;;;;;;;27.35;4.38;;;;;;;9.31;91.33;102839.31;5028160;28;20115;-84
2021/11/18 11:21:27;;;;;;;26.98;5.07;;;;;;;9.34;90.96;102844.53;5041855;28;20048;-83
2021/11/18 11:24:16;;;;;;;30.80;5.05;;;;;;;9.37;90.97;102847.16;5059738;28;20045;-83
2021/11/18 11:27:18;;;;;;;26.58;5.65;;;;;;;9.39;90.77;102853.25;5041865;28;20029;-83
2021/11/18 11:29:50;;;;;;;21.33;4.70;;;;;;;9.42;90.62;102853.22;5043381;28;20070;-83
2021/11/18 11:32:46;;;;;;;22.48;5.28;;;;;;;9.46;90.58;102848.84;5025320;28;20052;-83
2021/11/18 11:35:27;;;;;;;22.55;4.75;;;;;;;9.49;90.44;102841.00;5059758;28;20036;-83
2021/11/18 11:38:10;;;;;;;18.60;4.25;;;;;;;9.53;90.46;102846.22;5059046;28;20067;-83